Time;durP1;ratioP1;P1;durP2;ratioP2;P2;SDS_P1;SDS_P2;PMS_P1;PMS_P2;Temp;Humidity;BMP_temperature;BMP_pressure;BME280_temperature;BME280_humidity;BME280_pressure;Samples;Min_cycle;Max_cycle;Signal;HPM_P1;HPM_P2
2021/03/15 00:00:49;;;;;;;17.10;16.07;;;5.20;99.90;;;;;;5090723;28;20448;-74
2021/03/15 00:03:16;;;;;;;17.07;16.20;;;5.20;99.90;;;;;;5090668;28;20450;-74
2021/03/15 00:05:43;;;;;;;17.73;16.50;;;5.20;99.90;;;;;;5094356;28;20454;-73
2021/03/15 00:08:09;;;;;;;18.40;17.33;;;5.10;99.90;;;;;;5094442;28;20444;-74
2021/03/15 00:10:37;;;;;;;16.07;15.37;;;5.20;99.90;;;;;;5094306;28;20455;-74
2021/03/15 00:13:03;;;;;;;17.67;16.50;;;5.30;99.90;;;;;;5094588;28;20450;-74
2021/03/15 00:15:29;;;;;;;16.57;15.57;;;5.30;99.90;;;;;;5094567;28;20505;-75
2021/03/15 00:17:56;;;;;;;16.80;15.80;;;5.40;99.90;;;;;;5094453;28;20854;-75
2021/03/15 00:20:23;;;;;;;15.40;14.60;;;5.40;99.90;;;;;;5094042;28;20448;-75
2021/03/15 00:22:50;;;;;;;15.47;14.77;;;5.40;99.90;;;;;;5094503;28;20822;-73
2021/03/15 00:25:18;;;;;;;14.67;14.07;;;5.40;99.90;;;;;;5094268;28;20514;-75
2021/03/15 00:27:46;;;;;;;15.60;14.53;;;5.30;99.90;;;;;;5094379;28;20449;-75
2021/03/15 00:30:15;;;;;;;15.40;14.60;;;5.40;99.90;;;;;;5093971;28;20506;-75
2021/03/15 00:32:42;;;;;;;15.60;14.70;;;5.40;99.90;;;;;;5094091;28;20458;-74
2021/03/15 00:35:10;;;;;;;15.37;14.57;;;5.40;99.90;;;;;;5094091;28;20442;-74
2021/03/15 00:37:37;;;;;;;14.67;13.57;;;5.30;99.90;;;;;;5094020;28;20465;-74
2021/03/15 00:40:05;;;;;;;14.30;13.60;;;5.30;99.90;;;;;;5093967;28;20460;-74
2021/03/15 00:42:31;;;;;;;14.80;14.10;;;5.20;99.90;;;;;;5093643;28;20441;-74
2021/03/15 00:44:58;;;;;;;14.10;13.20;;;5.20;99.90;;;;;;5094137;28;20503;-74
2021/03/15 00:47:25;;;;;;;14.17;13.40;;;5.20;99.90;;;;;;5094151;28;20450;-74
2021/03/15 00:49:51;;;;;;;14.37;13.30;;;5.10;99.90;;;;;;5093804;28;20449;-74
2021/03/15 00:52:17;;;;;;;13.67;12.97;;;5.10;99.90;;;;;;5093902;28;20446;-75
2021/03/15 00:54:43;;;;;;;14.90;14.10;;;5.10;99.90;;;;;;5093832;28;20943;-74
2021/03/15 00:57:10;;;;;;;14.30;13.60;;;5.10;99.90;;;;;;5093778;28;20460;-74
2021/03/15 00:59:36;;;;;;;14.50;13.80;;;5.10;99.90;;;;;;5093416;28;20495;-74
2021/03/15 01:02:03;;;;;;;14.20;13.40;;;5.00;99.90;;;;;;5093762;28;20445;-74
2021/03/15 01:04:29;;;;;;;13.73;13.13;;;5.00;99.90;;;;;;5093762;28;20448;-74
2021/03/15 01:06:55;;;;;;;14.53;13.73;;;5.00;99.90;;;;;;5093653;28;20463;-75
2021/03/15 01:09:22;;;;;;;14.47;13.50;;;5.00;99.90;;;;;;5093464;28;20926;-76
2021/03/15 01:11:48;;;;;;;15.10;14.17;;;5.00;99.90;;;;;;5093302;28;20449;-76
2021/03/15 01:14:15;;;;;;;14.43;13.57;;;4.90;99.90;;;;;;5093372;28;20453;-75
2021/03/15 01:16:41;;;;;;;15.60;14.60;;;4.80;99.90;;;;;;5093068;28;21018;-75
2021/03/15 01:19:08;;;;;;;14.30;13.53;;;4.80;99.90;;;;;;5093101;28;20501;-75
2021/03/15 01:21:34;;;;;;;14.70;13.80;;;4.70;99.90;;;;;;5093187;28;20494;-75
2021/03/15 01:24:00;;;;;;;14.60;13.70;;;4.70;99.90;;;;;;5093397;28;20448;-75
2021/03/15 01:26:26;;;;;;;14.43;13.60;;;4.60;99.90;;;;;;5093344;28;20447;-74
2021/03/15 01:28:53;;;;;;;14.60;13.70;;;4.50;99.90;;;;;;5093200;28;20450;-74
2021/03/15 01:31:19;;;;;;;13.53;12.63;;;4.50;99.90;;;;;;5092785;28;20470;-73
2021/03/15 01:33:45;;;;;;;15.00;14.00;;;4.50;99.90;;;;;;5093365;28;20449;-73
2021/03/15 01:36:12;;;;;;;13.70;13.00;;;4.40;99.90;;;;;;5093037;28;20471;-73
2021/03/15 01:38:38;;;;;;;15.00;14.30;;;4.30;99.90;;;;;;5092995;28;20485;-73
2021/03/15 01:41:05;;;;;;;15.27;14.37;;;4.20;99.90;;;;;;5092820;28;20453;-74
2021/03/15 01:43:31;;;;;;;13.70;13.00;;;4.20;99.90;;;;;;5092706;28;20493;-74
2021/03/15 01:45:57;;;;;;;14.63;13.60;;;4.20;99.90;;;;;;5092882;28;20446;-73
2021/03/15 01:48:23;;;;;;;14.20;13.20;;;4.10;99.90;;;;;;5092840;28;20448;-73
2021/03/15 01:50:51;;;;;;;14.43;13.63;;;4.10;99.90;;;;;;5092911;28;20460;-74
2021/03/15 01:53:20;;;;;;;14.37;13.60;;;4.00;99.90;;;;;;5092333;28;20456;-74
2021/03/15 01:55:47;;;;;;;15.53;14.53;;;4.00;99.90;;;;;;5092768;28;20522;-74
2021/03/15 01:58:14;;;;;;;16.03;15.03;;;4.00;99.90;;;;;;5092559;28;20487;-74
2021/03/15 02:00:41;;;;;;;16.27;15.17;;;4.00;99.90;;;;;;5092457;28;20446;-74
2021/03/15 02:03:08;;;;;;;15.33;14.40;;;4.00;99.90;;;;;;5092299;28;20456;-75
2021/03/15 02:05:35;;;;;;;15.50;14.57;;;4.00;99.90;;;;;;5092335;28;20451;-74
2021/03/15 02:08:02;;;;;;;17.27;16.07;;;4.00;99.90;;;;;;5092576;28;20434;-74
2021/03/15 02:10:29;;;;;;;15.00;14.20;;;3.90;99.90;;;;;;5092678;28;20463;-74
2021/03/15 02:13:28;;;;;;;15.57;14.67;;;3.80;99.90;;;;;;5092604;28;20447;-74
2021/03/15 02:16:02;;;;;;;16.63;15.53;;;3.80;99.90;;;;;;5092170;28;20443;-74
2021/03/15 02:18:46;;;;;;;17.13;15.70;;;3.70;99.90;;;;;;5091857;28;21015;-74
2021/03/15 02:21:45;;;;;;;17.53;16.40;;;3.70;99.90;;;;;;5092187;28;20623;-74
2021/03/15 02:24:16;;;;;;;15.70;14.57;;;3.60;99.90;;;;;;5092175;28;20442;-76
2021/03/15 02:27:14;;;;;;;16.53;15.27;;;3.60;99.90;;;;;;5091606;28;20434;-74
2021/03/15 02:30:16;;;;;;;14.80;14.10;;;3.60;99.90;;;;;;5066653;28;20458;-73
2021/03/15 02:33:09;;;;;;;15.97;14.97;;;3.50;99.90;;;;;;5092130;28;20451;-74
2021/03/15 02:35:38;;;;;;;15.43;14.63;;;3.50;99.90;;;;;;5091821;28;20809;-73
2021/03/15 02:38:08;;;;;;;15.87;14.93;;;3.40;99.90;;;;;;5091770;28;20857;-73
2021/03/15 02:40:38;;;;;;;16.50;15.40;;;3.40;99.90;;;;;;5091719;28;20978;-73
2021/03/15 02:43:07;;;;;;;17.00;16.00;;;3.40;99.90;;;;;;5091467;28;20453;-72
2021/03/15 02:45:36;;;;;;;17.10;16.00;;;3.40;99.90;;;;;;5091477;28;20458;-73
2021/03/15 02:48:07;;;;;;;15.50;14.53;;;3.50;99.90;;;;;;5091856;28;20442;-73
2021/03/15 02:50:34;;;;;;;16.37;15.40;;;3.50;99.90;;;;;;5091692;28;20459;-73
2021/03/15 02:53:04;;;;;;;17.80;16.27;;;3.50;99.90;;;;;;5091408;28;20997;-73
2021/03/15 02:55:30;;;;;;;16.20;15.27;;;3.50;99.90;;;;;;5091697;28;20443;-73
2021/03/15 02:57:57;;;;;;;17.00;16.03;;;3.50;99.90;;;;;;5091468;28;20854;-73
2021/03/15 03:00:26;;;;;;;16.13;15.13;;;3.50;99.90;;;;;;5091405;28;20447;-73
2021/03/15 03:02:53;;;;;;;15.93;14.73;;;3.50;99.90;;;;;;5091576;28;20450;-73
2021/03/15 03:05:20;;;;;;;16.50;15.40;;;3.50;99.90;;;;;;5091291;28;20449;-73
2021/03/15 03:07:49;;;;;;;17.60;16.50;;;3.50;99.90;;;;;;5091284;28;20781;-74
2021/03/15 03:10:18;;;;;;;15.80;14.90;;;3.50;99.90;;;;;;5091594;28;20459;-74
2021/03/15 03:12:46;;;;;;;16.00;14.70;;;3.50;99.90;;;;;;5091528;28;20453;-74
2021/03/15 03:15:15;;;;;;;16.20;15.20;;;3.40;99.90;;;;;;5091203;28;20945;-74
2021/03/15 03:17:43;;;;;;;18.10;16.67;;;3.40;99.90;;;;;;5091210;28;20472;-74
2021/03/15 03:20:12;;;;;;;15.53;14.63;;;3.30;99.90;;;;;;5091290;28;20931;-74
2021/03/15 03:22:41;;;;;;;17.53;16.23;;;3.20;99.90;;;;;;5091233;28;20838;-74
2021/03/15 03:25:10;;;;;;;16.77;15.17;;;3.20;99.90;;;;;;5091383;28;20476;-74
2021/03/15 03:27:38;;;;;;;16.50;15.33;;;3.10;99.90;;;;;;5091104;28;20438;-73
2021/03/15 03:30:06;;;;;;;15.60;14.60;;;3.10;99.90;;;;;;5090965;28;20450;-73
2021/03/15 03:32:35;;;;;;;18.50;16.93;;;3.10;99.90;;;;;;5091284;28;20453;-74
2021/03/15 03:35:03;;;;;;;17.43;16.17;;;3.20;99.90;;;;;;5091115;28;20446;-74
2021/03/15 03:37:29;;;;;;;16.93;15.90;;;3.10;99.90;;;;;;5091242;28;20474;-73
2021/03/15 03:39:56;;;;;;;18.30;17.03;;;3.10;99.90;;;;;;5092928;28;20478;-74
2021/03/15 03:42:22;;;;;;;17.00;15.77;;;3.20;99.90;;;;;;5095204;28;20446;-74
2021/03/15 03:44:50;;;;;;;19.23;17.57;;;3.20;99.90;;;;;;5094992;28;20446;-74
2021/03/15 03:47:16;;;;;;;17.43;16.03;;;3.30;99.90;;;;;;5094792;28;20453;-73
2021/03/15 03:49:43;;;;;;;15.13;14.30;;;3.50;99.90;;;;;;5095040;28;20445;-73
2021/03/15 03:52:09;;;;;;;15.67;14.57;;;3.50;99.90;;;;;;5095093;28;20852;-73
2021/03/15 03:54:40;;;;;;;16.10;15.10;;;3.60;99.90;;;;;;5094861;28;21023;-73
2021/03/15 03:57:10;;;;;;;15.80;14.80;;;3.70;99.90;;;;;;5094964;28;20454;-72
2021/03/15 03:59:40;;;;;;;15.33;14.43;;;3.80;99.90;;;;;;5094748;28;20483;-73
2021/03/15 04:02:10;;;;;;;16.20;15.30;;;3.80;99.90;;;;;;5094463;28;20446;-73
2021/03/15 04:04:41;;;;;;;15.93;15.17;;;3.90;99.90;;;;;;5095008;28;20445;-73
2021/03/15 04:07:08;;;;;;;15.60;14.60;;;3.90;99.90;;;;;;5094883;28;20453;-72
2021/03/15 04:09:37;;;;;;;15.70;14.50;;;4.00;99.90;;;;;;5094514;28;20867;-73
2021/03/15 04:12:08;;;;;;;14.10;13.30;;;4.10;99.90;;;;;;5094453;28;20448;-73
2021/03/15 04:14:38;;;;;;;14.20;13.50;;;4.20;99.90;;;;;;5094523;28;20721;-73
2021/03/15 04:17:06;;;;;;;15.97;15.13;;;4.20;99.90;;;;;;5094367;28;20499;-75
2021/03/15 04:19:38;;;;;;;18.57;17.30;;;4.30;99.90;;;;;;5094236;28;20520;-74
2021/03/15 04:22:08;;;;;;;19.80;18.80;;;4.40;99.90;;;;;;5094629;28;20455;-73
2021/03/15 04:24:36;;;;;;;19.73;18.83;;;4.50;99.90;;;;;;5094483;28;20458;-73
2021/03/15 04:27:05;;;;;;;21.53;20.50;;;4.50;99.90;;;;;;5094308;28;20446;-73
2021/03/15 04:29:32;;;;;;;21.40;20.40;;;4.50;99.90;;;;;;5093910;28;20491;-73
2021/03/15 04:32:00;;;;;;;22.07;20.97;;;4.50;99.90;;;;;;5094245;28;20962;-73
2021/03/15 04:34:27;;;;;;;22.47;21.17;;;4.50;99.90;;;;;;5094359;28;20454;-73
2021/03/15 04:36:55;;;;;;;19.90;18.90;;;4.40;99.90;;;;;;5094137;28;20473;-74
2021/03/15 04:39:21;;;;;;;19.67;18.87;;;4.50;99.90;;;;;;5093937;28;20488;-75
2021/03/15 04:41:49;;;;;;;20.77;19.87;;;4.40;99.90;;;;;;5093884;28;20447;-74
2021/03/15 04:44:16;;;;;;;21.67;20.57;;;4.40;99.90;;;;;;5093863;28;20447;-73
2021/03/15 04:46:42;;;;;;;20.33;19.40;;;4.40;99.90;;;;;;5094100;28;20832;-74
2021/03/15 04:49:11;;;;;;;20.17;18.87;;;4.50;99.90;;;;;;5093805;28;20452;-75
2021/03/15 04:51:38;;;;;;;19.17;18.33;;;4.50;99.90;;;;;;5093370;28;20808;-73
2021/03/15 04:54:06;;;;;;;21.40;20.30;;;4.60;99.90;;;;;;5093350;28;20460;-73
2021/03/15 04:56:35;;;;;;;21.40;20.50;;;4.60;99.90;;;;;;5093855;28;20793;-73
2021/03/15 04:59:02;;;;;;;22.10;21.00;;;4.60;99.90;;;;;;5093466;28;20492;-73
2021/03/15 05:01:30;;;;;;;22.97;21.47;;;4.60;99.90;;;;;;5094063;28;20448;-74
2021/03/15 05:03:57;;;;;;;22.27;21.07;;;4.60;99.90;;;;;;5093651;28;20545;-74
2021/03/15 05:06:24;;;;;;;23.13;21.93;;;4.60;99.90;;;;;;5093545;28;20944;-73
2021/03/15 05:08:54;;;;;;;22.27;21.07;;;4.60;99.90;;;;;;5093032;28;20457;-74
2021/03/15 05:11:26;;;;;;;24.90;23.50;;;4.70;99.90;;;;;;5093149;28;20961;-75
2021/03/15 05:13:52;;;;;;;24.07;22.87;;;4.60;99.90;;;;;;5093321;28;20480;-74
2021/03/15 05:16:19;;;;;;;24.83;23.73;;;4.60;99.90;;;;;;5093256;28;20453;-74
2021/03/15 05:18:47;;;;;;;23.33;22.33;;;4.60;99.90;;;;;;5093000;28;20494;-74
2021/03/15 05:21:13;;;;;;;25.83;23.80;;;4.60;99.90;;;;;;5093576;28;20512;-74
2021/03/15 05:23:40;;;;;;;24.47;23.37;;;4.50;99.90;;;;;;5092940;28;20454;-73
2021/03/15 05:26:07;;;;;;;25.87;24.57;;;4.50;99.90;;;;;;5093067;28;20447;-73
2021/03/15 05:28:35;;;;;;;24.70;23.33;;;4.50;99.90;;;;;;5092679;28;20447;-72
2021/03/15 05:31:04;;;;;;;25.13;23.73;;;4.50;99.90;;;;;;5092819;28;20447;-73
2021/03/15 05:33:34;;;;;;;26.07;24.73;;;4.50;99.90;;;;;;5092811;28;20454;-73
2021/03/15 05:36:02;;;;;;;26.23;25.03;;;4.50;99.90;;;;;;5092920;28;20469;-73
2021/03/15 05:38:28;;;;;;;27.13;25.73;;;4.50;99.90;;;;;;5092658;28;20991;-73
2021/03/15 05:40:55;;;;;;;26.00;24.80;;;4.50;99.90;;;;;;5092675;28;20473;-72
2021/03/15 05:43:49;;;;;;;28.40;26.63;;;4.50;99.90;;;;;;5092629;28;20458;-72
2021/03/15 05:46:49;;;;;;;27.43;26.23;;;4.40;99.90;;;;;;5092923;28;20855;-72
2021/03/15 05:49:51;;;;;;;28.33;26.90;;;4.40;99.90;;;;;;5092375;28;20852;-71
2021/03/15 05:52:34;;;;;;;29.40;27.90;;;4.40;99.90;;;;;;5092798;28;20454;-71
2021/03/15 05:55:27;;;;;;;30.63;28.93;;;4.50;99.90;;;;;;5092939;28;20436;-72
2021/03/15 05:58:23;;;;;;;27.80;26.60;;;4.50;99.90;;;;;;5092699;28;20475;-71
2021/03/15 06:01:03;;;;;;;27.80;26.57;;;4.50;99.90;;;;;;5092483;28;20452;-72
2021/03/15 06:04:09;;;;;;;28.43;26.80;;;4.50;99.90;;;;;;5091910;28;20952;-71
2021/03/15 06:06:37;;;;;;;31.53;29.43;;;4.40;99.90;;;;;;5029958;28;21122;-72
2021/03/15 06:09:05;;;;;;;27.80;26.50;;;4.50;99.90;;;;;;5029818;28;20476;-72
2021/03/15 06:11:37;;;;;;;30.40;28.60;;;4.50;99.90;;;;;;5058398;28;20450;-73
2021/03/15 06:14:04;;;;;;;29.13;27.53;;;4.60;99.90;;;;;;5092287;28;20485;-73
2021/03/15 06:16:33;;;;;;;28.93;27.43;;;4.50;99.90;;;;;;5092403;28;20446;-73
2021/03/15 06:19:00;;;;;;;27.53;26.23;;;4.50;99.90;;;;;;5092196;28;20498;-72
2021/03/15 06:21:26;;;;;;;26.20;24.60;;;4.60;99.90;;;;;;5092397;28;20442;-73
2021/03/15 06:23:53;;;;;;;27.70;26.30;;;4.60;99.90;;;;;;5092191;28;20446;-73
2021/03/15 06:26:20;;;;;;;29.80;28.40;;;4.60;99.90;;;;;;5091759;28;20978;-72
2021/03/15 06:28:46;;;;;;;30.70;29.00;;;4.60;99.90;;;;;;5092202;28;20442;-72
2021/03/15 06:31:13;;;;;;;33.03;30.73;;;4.60;99.90;;;;;;5091642;28;20467;-71
2021/03/15 06:33:44;;;;;;;29.80;28.40;;;4.60;99.90;;;;;;5091706;28;20458;-72
2021/03/15 06:36:13;;;;;;;31.63;29.80;;;4.60;99.90;;;;;;5092764;28;20474;-73
2021/03/15 06:38:41;;;;;;;31.30;29.40;;;4.60;99.90;;;;;;5092804;28;20480;-73
2021/03/15 06:41:08;;;;;;;28.87;27.20;;;4.60;99.90;;;;;;5091340;28;20959;-73
2021/03/15 06:43:35;;;;;;;29.90;28.50;;;4.60;99.90;;;;;;5091253;28;20451;-73
2021/03/15 06:46:01;;;;;;;29.47;27.73;;;4.70;99.90;;;;;;5091362;28;20448;-73
2021/03/15 06:48:28;;;;;;;28.50;27.10;;;4.70;99.90;;;;;;5091247;28;20446;-74
2021/03/15 06:50:56;;;;;;;28.27;26.70;;;4.70;99.90;;;;;;5091322;28;20469;-74
2021/03/15 06:53:23;;;;;;;26.57;25.10;;;4.70;99.90;;;;;;5091260;28;20457;-74
2021/03/15 06:55:51;;;;;;;23.77;22.77;;;4.80;99.90;;;;;;5091236;28;20450;-73
2021/03/15 06:58:26;;;;;;;24.13;23.13;;;4.80;99.90;;;;;;5090966;28;20535;-73
2021/03/15 07:01:12;;;;;;;23.90;22.80;;;4.90;99.90;;;;;;5091331;28;20445;-74
2021/03/15 07:03:39;;;;;;;23.67;22.60;;;5.10;99.90;;;;;;5091193;28;20451;-75
2021/03/15 07:06:07;;;;;;;22.20;21.40;;;5.10;99.90;;;;;;5091267;28;20507;-73
2021/03/15 07:08:33;;;;;;;22.27;21.37;;;5.10;99.90;;;;;;5091126;28;20474;-73
2021/03/15 07:11:00;;;;;;;21.53;20.63;;;5.00;99.90;;;;;;5091236;28;20454;-73
2021/03/15 07:13:33;;;;;;;20.17;19.47;;;5.00;99.90;;;;;;5090648;28;20454;-74
2021/03/15 07:15:59;;;;;;;19.87;18.97;;;5.10;99.90;;;;;;5091175;28;20449;-74
2021/03/15 07:18:27;;;;;;;20.70;19.40;;;5.20;99.90;;;;;;5090799;28;20516;-74
2021/03/15 07:20:56;;;;;;;21.03;20.23;;;5.20;99.90;;;;;;5090962;28;20467;-73
2021/03/15 07:23:39;;;;;;;20.20;19.37;;;5.20;99.90;;;;;;5090923;28;20463;-74
2021/03/15 07:26:15;;;;;;;21.10;20.30;;;5.20;99.90;;;;;;5091009;28;20485;-74
2021/03/15 07:28:42;;;;;;;20.50;19.70;;;5.30;99.90;;;;;;5090675;28;20509;-75
2021/03/15 07:31:26;;;;;;;20.57;19.83;;;5.40;99.90;;;;;;5090693;28;20450;-75
2021/03/15 07:34:14;;;;;;;18.57;17.97;;;5.30;99.90;;;;;;5090622;28;20937;-76
2021/03/15 07:36:46;;;;;;;22.57;21.70;;;5.30;99.90;;;;;;5090517;28;20475;-74
2021/03/15 07:39:13;;;;;;;26.87;25.67;;;5.40;99.90;;;;;;5090643;28;20488;-75
2021/03/15 07:41:40;;;;;;;25.50;24.50;;;5.30;99.90;;;;;;5090812;28;20439;-74
2021/03/15 07:44:16;;;;;;;27.67;26.57;;;5.40;99.90;;;;;;5090755;28;20462;-73
2021/03/15 07:46:44;;;;;;;25.07;24.17;;;5.30;99.90;;;;;;5090846;28;20456;-72
2021/03/15 07:49:30;;;;;;;27.80;26.60;;;5.20;99.90;;;;;;5090680;28;20454;-72
2021/03/15 07:52:01;;;;;;;26.20;25.20;;;5.10;99.90;;;;;;5090663;28;20455;-72
2021/03/15 07:54:32;;;;;;;26.83;25.80;;;5.00;99.90;;;;;;5090500;28;20443;-72
2021/03/15 07:57:19;;;;;;;28.07;26.93;;;4.80;99.90;;;;;;5090503;28;20831;-71
2021/03/15 07:59:47;;;;;;;26.90;25.93;;;4.80;99.90;;;;;;5089981;28;21090;-72
2021/03/15 08:02:16;;;;;;;28.57;27.27;;;4.70;99.90;;;;;;5090249;28;20463;-71
2021/03/15 08:04:43;;;;;;;26.80;25.80;;;4.70;99.90;;;;;;5091159;28;20459;-71
2021/03/15 08:07:11;;;;;;;27.10;26.10;;;4.60;99.90;;;;;;5090349;28;20455;-71
2021/03/15 08:09:38;;;;;;;26.80;25.80;;;4.60;99.90;;;;;;5090578;28;20507;-72
2021/03/15 08:12:08;;;;;;;27.30;26.30;;;4.50;99.90;;;;;;5090563;28;20452;-72
2021/03/15 08:14:37;;;;;;;27.47;26.37;;;4.60;99.90;;;;;;5090361;28;20455;-72
2021/03/15 08:17:07;;;;;;;26.50;25.50;;;4.60;99.90;;;;;;5090112;28;20459;-71
2021/03/15 08:19:36;;;;;;;24.33;23.33;;;4.80;99.90;;;;;;5090283;28;20484;-71
2021/03/15 08:22:04;;;;;;;24.60;23.50;;;4.70;99.90;;;;;;5090541;28;20478;-71
2021/03/15 08:24:33;;;;;;;23.20;22.10;;;4.90;99.90;;;;;;5090444;28;20438;-71
2021/03/15 08:27:02;;;;;;;22.40;21.50;;;5.00;99.90;;;;;;5093494;28;20523;-72
2021/03/15 08:29:29;;;;;;;22.50;21.50;;;5.10;99.90;;;;;;5093845;28;20457;-72
2021/03/15 08:31:57;;;;;;;19.77;18.90;;;5.20;99.90;;;;;;5094007;28;20456;-72
2021/03/15 08:34:25;;;;;;;20.60;19.70;;;5.30;99.90;;;;;;5093637;28;20942;-72
2021/03/15 08:36:52;;;;;;;21.80;21.00;;;5.40;99.90;;;;;;5093612;28;20476;-72
2021/03/15 08:39:40;;;;;;;19.03;18.33;;;5.60;99.90;;;;;;5093569;28;20517;-73
2021/03/15 08:42:28;;;;;;;18.17;17.53;;;5.60;99.90;;;;;;5093673;28;20598;-73
2021/03/15 08:44:55;;;;;;;18.87;18.07;;;5.80;99.90;;;;;;5093510;28;20447;-73
2021/03/15 08:48:01;;;;;;;20.63;19.70;;;6.00;99.90;;;;;;5093494;28;21015;-72
2021/03/15 08:50:44;;;;;;;21.93;21.13;;;6.30;99.90;;;;;;5091550;28;20442;-72
2021/03/15 08:53:11;;;;;;;21.47;20.77;;;6.60;99.90;;;;;;5094058;28;20430;-72
2021/03/15 08:55:45;;;;;;;22.63;21.83;;;6.60;99.90;;;;;;5093580;28;20453;-72
2021/03/15 08:58:41;;;;;;;21.70;20.90;;;6.70;99.90;;;;;;5093688;28;20457;-72
2021/03/15 09:01:09;;;;;;;21.77;21.07;;;6.70;99.90;;;;;;5093880;28;20920;-73
2021/03/15 09:03:50;;;;;;;22.67;21.87;;;6.50;99.90;;;;;;5093637;28;20465;-73
2021/03/15 09:06:46;;;;;;;26.27;25.17;;;6.70;99.90;;;;;;5093645;28;20857;-73
2021/03/15 09:09:13;;;;;;;23.60;22.70;;;6.60;99.90;;;;;;5093417;28;20446;-72
2021/03/15 09:11:48;;;;;;;24.23;23.30;;;6.50;99.90;;;;;;5093557;28;20461;-73
2021/03/15 09:14:35;;;;;;;25.53;24.37;;;6.50;99.90;;;;;;5093271;28;20449;-73
2021/03/15 09:17:34;;;;;;;23.60;22.80;;;6.40;99.90;;;;;;5093116;28;20436;-73
2021/03/15 09:20:17;;;;;;;24.00;23.10;;;6.50;99.90;;;;;;5093356;28;20482;-70
2021/03/15 09:22:43;;;;;;;25.43;24.50;;;6.70;99.90;;;;;;5092917;28;20453;-72
2021/03/15 09:25:24;;;;;;;26.20;25.20;;;6.70;99.90;;;;;;5093076;28;20469;-72
2021/03/15 09:27:55;;;;;;;26.40;25.40;;;6.80;99.90;;;;;;5090577;28;20457;-72
2021/03/15 09:30:25;;;;;;;27.03;26.00;;;6.90;99.90;;;;;;5093074;28;20442;-70
2021/03/15 09:32:53;;;;;;;27.17;25.93;;;6.90;99.90;;;;;;5092830;28;20533;-69
2021/03/15 09:35:23;;;;;;;27.80;26.80;;;7.00;99.90;;;;;;5092804;28;20442;-71
2021/03/15 09:37:53;;;;;;;29.27;28.03;;;7.00;99.90;;;;;;5092720;28;20493;-71
2021/03/15 09:40:22;;;;;;;29.10;27.90;;;7.10;99.90;;;;;;5092574;28;20489;-72
2021/03/15 09:42:49;;;;;;;29.50;28.40;;;7.20;99.90;;;;;;5092598;28;20455;-72
2021/03/15 09:45:28;;;;;;;30.70;29.30;;;7.40;99.90;;;;;;5093083;28;20457;-72
2021/03/15 09:47:55;;;;;;;29.97;28.87;;;7.40;99.90;;;;;;5093154;28;20445;-72
2021/03/15 09:50:23;;;;;;;29.90;28.70;;;7.50;99.90;;;;;;5093029;28;20451;-71
2021/03/15 09:52:50;;;;;;;29.27;27.97;;;7.50;99.90;;;;;;5092840;28;20449;-72
2021/03/15 09:55:17;;;;;;;29.30;28.00;;;7.60;99.90;;;;;;5092807;28;20457;-70
2021/03/15 09:57:43;;;;;;;28.30;27.10;;;7.70;99.90;;;;;;5093164;28;20501;-72
2021/03/15 10:00:12;;;;;;;28.30;27.23;;;7.70;99.90;;;;;;5092939;28;20486;-72
2021/03/15 10:02:40;;;;;;;28.97;27.87;;;7.60;99.90;;;;;;5092738;28;20492;-73
2021/03/15 10:05:08;;;;;;;27.50;26.40;;;7.50;99.90;;;;;;5092785;28;20953;-72
2021/03/15 10:07:39;;;;;;;28.33;27.30;;;7.50;99.90;;;;;;5084538;28;20552;-72
2021/03/15 10:10:10;;;;;;;28.10;27.00;;;7.50;99.90;;;;;;5078234;28;20447;-72
2021/03/15 10:12:37;;;;;;;27.03;26.00;;;7.50;99.90;;;;;;5090032;28;20496;-73
2021/03/15 10:15:06;;;;;;;29.20;28.10;;;7.50;99.90;;;;;;5089921;28;20454;-73
2021/03/15 10:17:34;;;;;;;27.70;26.60;;;7.60;99.90;;;;;;5080288;28;20481;-73
2021/03/15 10:20:01;;;;;;;27.77;26.67;;;7.60;99.90;;;;;;5092600;28;20943;-73
2021/03/15 10:22:28;;;;;;;27.60;26.37;;;7.80;99.90;;;;;;5092562;28;20571;-73
2021/03/15 10:24:54;;;;;;;27.03;25.93;;;7.90;99.90;;;;;;5091961;28;20940;-74
2021/03/15 10:27:23;;;;;;;28.40;27.20;;;7.80;99.90;;;;;;5092149;28;20507;-73
2021/03/15 10:29:51;;;;;;;25.90;24.90;;;7.60;99.90;;;;;;5092347;28;20539;-73
2021/03/15 10:32:21;;;;;;;26.10;25.10;;;7.50;99.90;;;;;;5092567;28;20463;-73
2021/03/15 10:34:55;;;;;;;28.13;27.03;;;7.50;99.90;;;;;;5092289;28;20447;-73
2021/03/15 10:37:24;;;;;;;27.90;26.80;;;7.50;99.90;;;;;;5092717;28;20836;-73
2021/03/15 10:39:52;;;;;;;27.57;26.57;;;7.70;99.90;;;;;;5091998;28;20572;-73
2021/03/15 10:42:21;;;;;;;27.93;26.83;;;7.90;99.90;;;;;;5088118;28;20442;-73
2021/03/15 10:44:48;;;;;;;26.20;24.97;;;8.00;99.90;;;;;;5092195;28;20500;-72
2021/03/15 10:47:25;;;;;;;26.00;24.87;;;8.00;99.90;;;;;;5092344;28;20446;-73
2021/03/15 10:49:52;;;;;;;23.63;22.73;;;8.00;99.90;;;;;;5091919;28;20442;-73
2021/03/15 10:52:28;;;;;;;23.70;22.80;;;7.90;99.90;;;;;;5091812;28;20450;-73
2021/03/15 10:54:54;;;;;;;23.43;22.43;;;8.10;99.90;;;;;;5092131;28;20449;-73
2021/03/15 10:57:22;;;;;;;23.63;22.67;;;8.10;99.90;;;;;;5080476;28;20463;-73
2021/03/15 10:59:50;;;;;;;22.93;21.90;;;8.20;99.90;;;;;;5071629;28;20479;-73
2021/03/15 11:02:21;;;;;;;20.80;19.77;;;8.30;99.90;;;;;;5071510;28;20450;-73
2021/03/15 11:04:52;;;;;;;18.23;17.53;;;8.40;99.90;;;;;;5071801;28;20431;-73
2021/03/15 11:07:28;;;;;;;15.57;15.07;;;8.30;99.90;;;;;;5071513;28;20447;-74
2021/03/15 11:10:04;;;;;;;15.47;14.97;;;8.40;99.90;;;;;;5071379;28;20435;-73
2021/03/15 11:12:35;;;;;;;15.43;14.83;;;8.40;99.90;;;;;;5080694;28;20441;-74
2021/03/15 11:15:19;;;;;;;13.47;13.00;;;8.50;99.90;;;;;;5091863;28;20438;-73
2021/03/15 11:18:19;;;;;;;13.90;13.40;;;8.70;99.90;;;;;;5091539;28;20480;-73
2021/03/15 11:20:49;;;;;;;13.77;13.17;;;8.80;99.90;;;;;;5086595;28;20490;-73
2021/03/15 11:23:29;;;;;;;12.67;12.27;;;9.00;99.90;;;;;;5091706;28;20446;-73
2021/03/15 11:26:00;;;;;;;12.13;11.73;;;9.00;99.90;;;;;;5091689;28;20900;-73
2021/03/15 11:28:31;;;;;;;12.33;11.83;;;9.10;99.90;;;;;;5091689;28;20456;-74
2021/03/15 11:30:59;;;;;;;12.83;12.30;;;9.10;99.90;;;;;;5091795;28;20459;-74
2021/03/15 11:33:27;;;;;;;11.60;11.20;;;9.10;99.90;;;;;;5091732;28;20854;-74
2021/03/15 11:35:54;;;;;;;11.30;10.90;;;9.30;99.90;;;;;;5091635;28;20561;-74
2021/03/15 11:38:23;;;;;;;11.97;11.53;;;9.30;99.90;;;;;;5091528;28;20462;-74
2021/03/15 11:40:50;;;;;;;11.00;10.60;;;9.30;99.90;;;;;;5091390;28;20442;-74
2021/03/15 11:43:17;;;;;;;11.50;10.83;;;9.10;99.90;;;;;;5070874;28;20439;-75
2021/03/15 11:45:43;;;;;;;11.80;11.40;;;8.90;99.90;;;;;;5071329;28;20463;-75
2021/03/15 11:48:10;;;;;;;10.87;10.57;;;9.00;99.90;;;;;;5071336;28;20453;-75
2021/03/15 11:50:38;;;;;;;11.80;11.30;;;9.30;99.90;;;;;;5071157;28;20948;-74
2021/03/15 11:53:06;;;;;;;12.37;11.80;;;9.20;99.90;;;;;;5070940;28;20453;-73
2021/03/15 11:55:33;;;;;;;13.00;12.40;;;9.30;99.90;;;;;;5071233;28;20446;-74
2021/03/15 11:57:59;;;;;;;12.97;12.07;;;9.10;99.90;;;;;;5076492;28;20434;-74
2021/03/15 12:00:26;;;;;;;12.00;11.50;;;8.90;99.90;;;;;;5092500;28;20497;-77
2021/03/15 12:02:53;;;;;;;11.73;11.00;;;9.00;99.90;;;;;;5095046;28;20451;-74
2021/03/15 12:05:21;;;;;;;12.43;11.53;;;9.40;99.90;;;;;;5095102;28;20492;-74
2021/03/15 12:07:47;;;;;;;13.13;12.50;;;9.70;99.90;;;;;;5094998;28;20446;-74
2021/03/15 12:10:15;;;;;;;11.57;10.90;;;9.90;99.90;;;;;;5095051;28;20442;-74
2021/03/15 12:12:42;;;;;;;12.50;12.00;;;10.10;99.90;;;;;;5093084;28;20948;-75
2021/03/15 12:15:11;;;;;;;12.07;11.57;;;10.60;99.90;;;;;;5089401;28;20449;-75
2021/03/15 12:17:38;;;;;;;11.27;10.87;;;11.10;99.90;;;;;;5074336;28;20482;-73
2021/03/15 12:20:06;;;;;;;11.80;11.30;;;10.40;99.90;;;;;;5074104;28;20824;-72
2021/03/15 12:22:32;;;;;;;11.80;11.13;;;10.10;99.90;;;;;;5074443;28;20446;-73
2021/03/15 12:24:58;;;;;;;11.37;10.60;;;9.80;99.90;;;;;;5074651;28;20466;-73
2021/03/15 12:27:25;;;;;;;10.93;10.30;;;9.60;99.90;;;;;;5074240;28;20495;-73
2021/03/15 12:29:52;;;;;;;11.77;11.20;;;9.30;99.90;;;;;;5074039;28;20469;-74
2021/03/15 12:32:18;;;;;;;11.07;10.57;;;9.20;99.90;;;;;;5074567;28;20447;-73
2021/03/15 12:34:44;;;;;;;10.53;10.13;;;9.00;99.90;;;;;;5094424;28;20495;-73
2021/03/15 12:37:11;;;;;;;11.70;11.20;;;8.80;99.90;;;;;;5094432;28;20474;-75
2021/03/15 12:39:37;;;;;;;12.00;11.50;;;8.70;99.90;;;;;;5093958;28;20539;-73
2021/03/15 12:42:05;;;;;;;11.73;11.23;;;8.70;99.90;;;;;;5094172;28;20449;-73
2021/03/15 12:44:31;;;;;;;10.97;10.47;;;9.00;99.90;;;;;;5094263;28;20461;-73
2021/03/15 12:46:58;;;;;;;11.70;11.30;;;9.20;99.90;;;;;;5094284;28;20450;-73
2021/03/15 12:49:24;;;;;;;12.97;12.17;;;9.20;99.90;;;;;;5094164;28;20620;-73
2021/03/15 12:51:51;;;;;;;12.87;12.17;;;9.50;99.90;;;;;;5094292;28;20446;-74